Time;durP1;ratioP1;P1;durP2;ratioP2;P2;SDS_P1;SDS_P2;PMS_P1;PMS_P2;Temp;Humidity;BMP_temperature;BMP_pressure;BME280_temperature;BME280_humidity;BME280_pressure;Samples;Min_cycle;Max_cycle;Signal;HPM_P1;HPM_P2
2021/12/08 00:01:22;;;;;;;11.05;2.03;;;;;;;;;;4999938;28;20578;-78
2021/12/08 00:03:49;;;;;;;9.73;2.33;;;;;;;;;;4995608;28;20041;-79
2021/12/08 00:06:16;;;;;;;10.73;2.28;;;;;;;;;;4980952;28;20033;-78
2021/12/08 00:08:50;;;;;;;11.13;2.25;;;;;;;;;;4997659;28;20036;-78
2021/12/08 00:14:04;;;;;;;11.07;2.55;;;;;;;;;;4986669;28;20128;-77
2021/12/08 00:16:31;;;;;;;9.98;2.08;;;;;;;;;;4999612;28;20033;-77
2021/12/08 00:18:59;;;;;;;;;;;;;;;;;;4977583;28;20600;-78
2021/12/08 00:21:27;;;;;;;10.95;2.17;;;;;;;;;;4987678;28;19908;-77
2021/12/08 00:23:56;;;;;;;12.48;3.03;;;;;;;;;;4997211;28;20034;-77
2021/12/08 00:26:27;;;;;;;11.77;2.38;;;;;;;;;;4997858;28;20091;-78
2021/12/08 00:28:54;;;;;;;12.10;2.40;;;;;;;;;;5002881;28;20779;-78
2021/12/08 00:31:21;;;;;;;10.60;2.30;;;;;;;;;;5000783;28;20037;-78
2021/12/08 00:33:48;;;;;;;11.20;2.25;;;;;;;;;;4998317;28;20492;-78
2021/12/08 00:36:15;;;;;;;8.82;2.00;;;;;;;;;;4998298;28;20434;-78
2021/12/08 00:38:43;;;;;;;10.93;2.40;;;;;;;;;;4990197;28;20022;-78
2021/12/08 00:41:11;;;;;;;10.82;2.47;;;;;;;;;;4983972;28;20856;-78
2021/12/08 00:43:40;;;;;;;9.88;2.40;;;;;;;;;;4982042;28;20070;-77
2021/12/08 00:46:08;;;;;;;10.77;2.08;;;;;;;;;;5002012;28;20376;-77
2021/12/08 00:48:35;;;;;;;9.23;2.05;;;;;;;;;;4990657;28;20048;-79
2021/12/08 00:51:02;;;;;;;7.60;1.98;;;;;;;;;;4966270;28;20062;-77
2021/12/08 00:53:29;;;;;;;8.88;2.10;;;;;;;;;;4954584;28;20750;-78
2021/12/08 00:55:56;;;;;;;11.45;2.20;;;;;;;;;;4954949;28;20066;-79
2021/12/08 00:58:23;;;;;;;10.95;2.10;;;;;;;;;;4957758;28;20089;-78
2021/12/08 01:00:52;;;;;;;9.50;2.03;;;;;;;;;;4952412;28;20138;-78
2021/12/08 01:03:19;;;;;;;9.98;2.10;;;;;;;;;;4954936;28;20126;-78
2021/12/08 01:05:48;;;;;;;7.60;1.73;;;;;;;;;;4951229;28;20089;-78
2021/12/08 01:08:15;;;;;;;11.43;2.30;;;;;;;;;;4970844;28;20042;-79
2021/12/08 01:10:43;;;;;;;9.30;1.85;;;;;;;;;;4942944;28;20169;-78
2021/12/08 01:13:11;;;;;;;9.10;1.83;;;;;;;;;;4944348;28;20367;-79
2021/12/08 01:15:39;;;;;;;10.07;1.88;;;;;;;;;;4944690;28;20038;-80
2021/12/08 01:18:06;;;;;;;7.45;1.65;;;;;;;;;;4960377;28;20118;-77
2021/12/08 01:20:34;;;;;;;9.07;1.70;;;;;;;;;;4960613;28;20035;-78
2021/12/08 01:23:01;;;;;;;7.93;1.70;;;;;;;;;;4948287;28;20062;-80
2021/12/08 01:25:28;;;;;;;7.38;1.35;;;;;;;;;;4960009;28;20042;-77
2021/12/08 01:27:55;;;;;;;8.48;1.50;;;;;;;;;;4955126;28;20618;-78
2021/12/08 01:30:22;;;;;;;8.32;1.48;;;;;;;;;;4952963;28;20034;-79
2021/12/08 01:32:49;;;;;;;11.35;1.92;;;;;;;;;;4954914;28;20074;-79
2021/12/08 01:35:16;;;;;;;;;;;;;;;;;;4957721;28;20049;-79
2021/12/08 01:37:43;;;;;;;10.73;1.95;;;;;;;;;;4951358;28;19922;-80
2021/12/08 01:40:11;;;;;;;9.32;1.70;;;;;;;;;;4955257;28;20126;-78
2021/12/08 01:42:44;;;;;;;10.57;1.77;;;;;;;;;;4952905;28;20052;-78
2021/12/08 01:47:58;;;;;;;7.18;1.75;;;;;;;;;;4955258;28;20702;-79
2021/12/08 01:50:26;;;;;;;8.68;1.77;;;;;;;;;;4960612;28;20423;-79
2021/12/08 01:52:55;;;;;;;9.00;1.50;;;;;;;;;;4989305;28;20719;-78
2021/12/08 01:55:22;;;;;;;8.65;1.70;;;;;;;;;;4970384;28;20116;-78
2021/12/08 01:57:48;;;;;;;;;;;;;;;;;;4977684;28;20053;-80
2021/12/08 02:00:21;;;;;;;9.40;1.95;;;;;;;;;;4977020;28;19909;-80
2021/12/08 02:02:47;;;;;;;12.57;2.38;;;;;;;;;;4981800;28;20034;-79
2021/12/08 02:05:14;;;;;;;11.85;2.20;;;;;;;;;;4979944;28;20041;-78
2021/12/08 02:07:41;;;;;;;11.05;2.13;;;;;;;;;;4987491;28;20069;-78
2021/12/08 02:10:08;;;;;;;13.63;2.50;;;;;;;;;;4999285;28;20538;-78
2021/12/08 02:12:38;;;;;;;10.38;2.05;;;;;;;;;;4974841;28;20045;-78
2021/12/08 02:15:06;;;;;;;8.23;2.08;;;;;;;;;;4971921;28;20030;-78
2021/12/08 02:17:33;;;;;;;11.20;2.42;;;;;;;;;;4998248;28;20034;-77
2021/12/08 02:20:01;;;;;;;12.15;2.88;;;;;;;;;;4990738;28;20033;-79
2021/12/08 02:22:28;;;;;;;13.15;2.55;;;;;;;;;;4995229;28;20038;-78
2021/12/08 02:24:55;;;;;;;10.50;2.20;;;;;;;;;;4986780;28;21930;-78
2021/12/08 02:27:22;;;;;;;12.23;2.45;;;;;;;;;;4996411;28;20053;-78
2021/12/08 02:29:56;;;;;;;10.30;2.50;;;;;;;;;;4982721;28;20030;-78
2021/12/08 02:48:57;;;;;;;10.30;2.17;;;;;;;;;;4987844;28;20061;-77
2021/12/08 02:51:24;;;;;;;13.52;2.33;;;;;;;;;;4971938;28;20038;-78
2021/12/08 02:53:51;;;;;;;9.55;1.95;;;;;;;;;;4975475;28;20080;-79
2021/12/08 02:56:18;;;;;;;9.65;2.20;;;;;;;;;;4973235;28;20136;-77
2021/12/08 02:58:45;;;;;;;11.95;2.08;;;;;;;;;;4988901;28;20034;-77
2021/12/08 03:01:13;;;;;;;6.72;1.42;;;;;;;;;;4984202;28;20875;-77
2021/12/08 03:03:41;;;;;;;7.93;1.40;;;;;;;;;;4984709;28;20038;-79
2021/12/08 03:06:07;;;;;;;8.52;1.60;;;;;;;;;;4979484;28;20026;-79
2021/12/08 03:08:35;;;;;;;9.70;1.67;;;;;;;;;;4967502;28;20133;-79
2021/12/08 03:11:02;;;;;;;9.23;1.63;;;;;;;;;;4972342;28;20041;-79
2021/12/08 03:13:54;;;;;;;7.57;1.55;;;;;;;;;;4972049;28;20132;-79
2021/12/08 03:16:21;;;;;;;8.02;1.60;;;;;;;;;;4961102;28;20049;-79
2021/12/08 03:18:50;;;;;;;7.63;1.45;;;;;;;;;;4978931;28;20041;-79
2021/12/08 03:21:16;;;;;;;5.85;1.13;;;;;;;;;;4968475;28;20033;-76
2021/12/08 03:26:32;;;;;;;10.13;1.73;;;;;;;;;;4977722;28;20161;-79
2021/12/08 03:29:06;;;;;;;6.00;1.33;;;;;;;;;;4969688;28;20051;-79
2021/12/08 03:31:42;;;;;;;6.88;1.20;;;;;;;;;;4991457;28;20049;-79
2021/12/08 03:34:09;;;;;;;8.55;1.52;;;;;;;;;;4983388;28;20131;-79
2021/12/08 03:36:36;;;;;;;8.80;1.48;;;;;;;;;;4984390;28;20788;-78
2021/12/08 03:39:04;;;;;;;8.23;1.40;;;;;;;;;;4974855;28;20123;-78
2021/12/08 03:41:34;;;;;;;8.85;1.48;;;;;;;;;;4974991;28;20608;-78
2021/12/08 03:44:02;;;;;;;9.50;1.38;;;;;;;;;;4973525;28;20065;-78
2021/12/08 03:46:31;;;;;;;8.25;1.30;;;;;;;;;;4977878;28;20645;-78
2021/12/08 03:48:58;;;;;;;6.63;1.20;;;;;;;;;;4965539;28;20620;-78
2021/12/08 03:51:25;;;;;;;8.73;1.30;;;;;;;;;;4987247;28;20518;-77
2021/12/08 03:53:53;;;;;;;9.45;1.58;;;;;;;;;;4974513;28;20033;-77
2021/12/08 03:56:20;;;;;;;8.30;1.20;;;;;;;;;;4968001;28;20042;-77
2021/12/08 03:58:47;;;;;;;9.85;1.77;;;;;;;;;;4969861;28;20042;-77
2021/12/08 04:01:14;;;;;;;10.15;1.83;;;;;;;;;;4974764;28;20026;-76
2021/12/08 04:03:49;;;;;;;11.32;2.03;;;;;;;;;;4974027;28;20084;-77
2021/12/08 04:06:33;;;;;;;12.40;1.85;;;;;;;;;;4990058;28;20030;-77
2021/12/08 04:09:05;;;;;;;12.02;2.17;;;;;;;;;;4973076;28;20038;-78
2021/12/08 04:11:33;;;;;;;10.52;1.65;;;;;;;;;;4979072;28;20623;-78
2021/12/08 04:14:02;;;;;;;10.70;1.80;;;;;;;;;;4973120;28;20073;-78
2021/12/08 04:16:32;;;;;;;10.63;1.70;;;;;;;;;;4967794;28;20042;-78
2021/12/08 04:18:59;;;;;;;9.80;1.40;;;;;;;;;;4990017;28;20718;-78
2021/12/08 04:21:26;;;;;;;10.73;1.40;;;;;;;;;;4972964;28;20044;-77
2021/12/08 04:23:53;;;;;;;10.45;1.65;;;;;;;;;;4966452;28;20728;-78
2021/12/08 04:26:34;;;;;;;9.32;1.70;;;;;;;;;;4975913;28;20038;-77
2021/12/08 04:29:01;;;;;;;10.05;1.83;;;;;;;;;;4974525;28;20044;-77
2021/12/08 04:31:30;;;;;;;10.77;1.70;;;;;;;;;;4995745;28;20048;-77
2021/12/08 04:34:02;;;;;;;12.20;1.75;;;;;;;;;;4973991;28;20092;-78
2021/12/08 04:36:39;;;;;;;10.45;1.73;;;;;;;;;;4979122;28;20050;-79
2021/12/08 04:39:13;;;;;;;8.77;1.73;;;;;;;;;;4981106;28;20033;-79
2021/12/08 04:41:45;;;;;;;8.93;1.60;;;;;;;;;;4967566;28;20068;-77
2021/12/08 04:52:04;;;;;;;10.57;1.85;;;;;;;;;;4988475;28;20046;-79
2021/12/08 05:03:43;;;;;;;6.20;1.08;;;;;;;;;;4999605;28;20589;-78
2021/12/08 05:06:35;;;;;;;7.82;1.02;;;;;;;;;;4992740;28;20044;-79
2021/12/08 05:09:05;;;;;;;7.15;1.10;;;;;;;;;;4991426;28;20033;-79
2021/12/08 05:11:36;;;;;;;5.68;1.20;;;;;;;;;;5003255;28;20057;-78
2021/12/08 05:14:19;;;;;;;8.77;1.30;;;;;;;;;;4998741;28;20041;-77
2021/12/08 05:16:47;;;;;;;5.60;0.90;;;;;;;;;;4991164;28;20041;-77
2021/12/08 05:19:16;;;;;;;5.65;1.08;;;;;;;;;;5000114;28;20034;-76
2021/12/08 05:21:45;;;;;;;7.07;1.27;;;;;;;;;;4982650;28;20385;-77
2021/12/08 05:24:20;;;;;;;7.28;1.40;;;;;;;;;;4985887;28;20492;-78
2021/12/08 05:26:57;;;;;;;6.68;0.93;;;;;;;;;;4990736;28;20119;-77
2021/12/08 05:29:29;;;;;;;3.85;0.93;;;;;;;;;;4979949;28;20038;-77
2021/12/08 05:31:58;;;;;;;5.80;0.95;;;;;;;;;;4975121;28;20065;-78
2021/12/08 05:34:26;;;;;;;2.35;0.70;;;;;;;;;;4990179;28;20033;-77
2021/12/08 05:36:54;;;;;;;7.50;1.20;;;;;;;;;;4976623;28;22619;-77
2021/12/08 05:39:23;;;;;;;3.90;1.00;;;;;;;;;;4982748;28;20056;-78
2021/12/08 05:41:53;;;;;;;6.97;1.10;;;;;;;;;;4990343;28;20480;-78
2021/12/08 05:44:21;;;;;;;3.20;0.90;;;;;;;;;;4997922;28;20045;-77
2021/12/08 05:46:50;;;;;;;6.20;1.10;;;;;;;;;;4992806;28;20116;-78
2021/12/08 05:49:18;;;;;;;4.60;1.15;;;;;;;;;;4997209;28;20354;-78
2021/12/08 05:51:48;;;;;;;6.95;1.35;;;;;;;;;;4969819;28;20489;-77
2021/12/08 05:54:37;;;;;;;12.30;1.38;;;;;;;;;;4949744;28;20418;-77
2021/12/08 05:57:06;;;;;;;4.32;1.08;;;;;;;;;;4960643;28;20054;-78
2021/12/08 05:59:33;;;;;;;4.88;1.05;;;;;;;;;;4959119;28;20618;-78
2021/12/08 06:02:02;;;;;;;5.82;1.17;;;;;;;;;;4970775;28;20765;-78
2021/12/08 06:04:30;;;;;;;3.67;1.10;;;;;;;;;;4952866;28;20043;-78
2021/12/08 06:06:57;;;;;;;4.65;0.88;;;;;;;;;;4949774;28;20061;-77
2021/12/08 06:09:25;;;;;;;6.00;1.15;;;;;;;;;;4951615;28;20038;-77
2021/12/08 06:11:52;;;;;;;4.40;1.00;;;;;;;;;;4954756;28;20026;-78
2021/12/08 06:14:20;;;;;;;5.68;1.05;;;;;;;;;;4958247;28;20038;-78
2021/12/08 06:16:50;;;;;;;7.30;1.27;;;;;;;;;;4956393;28;20034;-78
2021/12/08 06:19:19;;;;;;;5.43;1.10;;;;;;;;;;4960930;28;20663;-78
2021/12/08 06:21:47;;;;;;;6.95;1.15;;;;;;;;;;4948290;28;20046;-79
2021/12/08 06:24:15;;;;;;;5.85;1.27;;;;;;;;;;4959101;28;20033;-79
2021/12/08 06:26:43;;;;;;;9.63;1.60;;;;;;;;;;4947119;28;20026;-78
2021/12/08 06:29:11;;;;;;;11.93;1.95;;;;;;;;;;4952995;28;20073;-77
2021/12/08 06:31:39;;;;;;;7.20;1.80;;;;;;;;;;4970918;28;20034;-77
2021/12/08 06:34:05;;;;;;;8.90;1.65;;;;;;;;;;4951251;28;20147;-77
2021/12/08 06:36:36;;;;;;;11.05;1.92;;;;;;;;;;4954389;28;20046;-76
2021/12/08 06:39:04;;;;;;;11.77;1.70;;;;;;;;;;4957548;28;20149;-76
2021/12/08 06:41:53;;;;;;;10.00;1.75;;;;;;;;;;4957052;28;20038;-75
2021/12/08 06:47:50;;;;;;;6.80;1.20;;;;;;;;;;4959175;28;20057;-76
2021/12/08 06:50:27;;;;;;;5.90;1.30;;;;;;;;;;4952888;28;20062;-77
2021/12/08 06:52:53;;;;;;;;;;;;;;;;;;4991641;28;20167;-77
2021/12/08 06:55:22;;;;;;;9.10;1.73;;;;;;;;;;4993267;28;19924;-78
2021/12/08 06:57:51;;;;;;;9.18;1.30;;;;;;;;;;4991559;28;20065;-78
2021/12/08 07:00:23;;;;;;;8.32;1.23;;;;;;;;;;4981819;28;20468;-78
2021/12/08 07:08:25;;;;;;;7.97;1.20;;;;;;;;;;4982345;28;20526;-77
2021/12/08 07:10:56;;;;;;;5.45;0.90;;;;;;;;;;4983098;28;20052;-77
2021/12/08 07:13:25;;;;;;;7.28;1.13;;;;;;;;;;4987796;28;20072;-77
2021/12/08 07:15:52;;;;;;;8.20;1.30;;;;;;;;;;4990166;28;20038;-78
2021/12/08 07:18:38;;;;;;;6.97;1.23;;;;;;;;;;4991183;28;20120;-78
2021/12/08 07:21:07;;;;;;;7.22;1.25;;;;;;;;;;4983593;28;20065;-78
2021/12/08 07:23:43;;;;;;;6.05;0.93;;;;;;;;;;4991794;28;20034;-79
2021/12/08 07:26:13;;;;;;;5.80;0.93;;;;;;;;;;4970771;28;20045;-78
2021/12/08 07:28:42;;;;;;;9.10;1.60;;;;;;;;;;4991624;28;20037;-79
2021/12/08 07:31:25;;;;;;;9.52;3.20;;;;;;;;;;4996597;28;20030;-78
2021/12/08 07:33:52;;;;;;;11.25;3.22;;;;;;;;;;4990677;28;20219;-78
2021/12/08 07:36:21;;;;;;;9.13;2.00;;;;;;;;;;4999365;28;20029;-76
2021/12/08 07:38:50;;;;;;;11.05;2.17;;;;;;;;;;4981177;28;20033;-76
2021/12/08 07:41:23;;;;;;;9.15;2.60;;;;;;;;;;4961091;28;20112;-77
2021/12/08 07:43:53;;;;;;;10.63;2.30;;;;;;;;;;4989680;28;20030;-77
2021/12/08 07:46:23;;;;;;;12.55;1.90;;;;;;;;;;4992592;28;20122;-77
2021/12/08 07:48:51;;;;;;;12.80;2.08;;;;;;;;;;4981554;28;20068;-78
2021/12/08 07:51:22;;;;;;;10.07;2.25;;;;;;;;;;4983775;28;20120;-78
2021/12/08 07:53:49;;;;;;;15.07;2.40;;;;;;;;;;4985471;28;20104;-78
2021/12/08 07:56:18;;;;;;;13.15;2.88;;;;;;;;;;4991450;28;20088;-77
2021/12/08 07:58:47;;;;;;;9.27;2.13;;;;;;;;;;4986652;28;20905;-77
2021/12/08 08:01:22;;;;;;;11.85;2.28;;;;;;;;;;5000215;28;20044;-77
2021/12/08 08:03:50;;;;;;;11.55;2.00;;;;;;;;;;4991821;28;20044;-76
2021/12/08 08:06:20;;;;;;;8.55;1.55;;;;;;;;;;4995143;28;20040;-78
2021/12/08 08:08:46;;;;;;;7.90;1.63;;;;;;;;;;4987554;28;20427;-76
2021/12/08 08:11:20;;;;;;;11.45;2.17;;;;;;;;;;4996917;28;20374;-77
2021/12/08 08:13:47;;;;;;;7.20;1.67;;;;;;;;;;4991378;28;20140;-77
2021/12/08 08:16:16;;;;;;;8.93;1.63;;;;;;;;;;5002252;28;20040;-79
2021/12/08 08:18:46;;;;;;;10.15;2.00;;;;;;;;;;4972298;28;20056;-79
2021/12/08 08:21:16;;;;;;;9.15;1.60;;;;;;;;;;4985522;28;20715;-78
2021/12/08 08:23:44;;;;;;;7.43;1.92;;;;;;;;;;4993080;28;20099;-78
2021/12/08 08:26:13;;;;;;;8.18;1.98;;;;;;;;;;4993274;28;20487;-81
2021/12/08 08:28:41;;;;;;;7.70;1.50;;;;;;;;;;4989963;28;20068;-78
2021/12/08 08:31:11;;;;;;;6.85;1.42;;;;;;;;;;4991813;28;21197;-79
2021/12/08 08:33:40;;;;;;;8.20;1.23;;;;;;;;;;4992529;28;20030;-78
2021/12/08 08:36:10;;;;;;;9.20;1.33;;;;;;;;;;4993848;28;20063;-76
2021/12/08 08:38:47;;;;;;;6.60;1.20;;;;;;;;;;4957974;28;20053;-77
2021/12/08 08:41:17;;;;;;;8.82;2.10;;;;;;;;;;5001677;28;20045;-77
2021/12/08 08:43:44;;;;;;;10.25;2.13;;;;;;;;;;4991958;28;20128;-79
2021/12/08 08:46:14;;;;;;;11.77;2.22;;;;;;;;;;4981856;28;20040;-79
2021/12/08 08:48:44;;;;;;;7.13;1.50;;;;;;;;;;4980086;28;20079;-80
2021/12/08 08:51:13;;;;;;;9.73;1.85;;;;;;;;;;4991669;28;20037;-78
2021/12/08 08:53:41;;;;;;;7.53;1.70;;;;;;;;;;4992806;28;20059;-77
2021/12/08 08:56:12;;;;;;;7.47;1.77;;;;;;;;;;4992186;28;20037;-77
2021/12/08 08:58:39;;;;;;;8.45;1.58;;;;;;;;;;4986856;28;20037;-77
2021/12/08 09:01:11;;;;;;;6.85;1.52;;;;;;;;;;5000864;28;20041;-78
2021/12/08 09:03:47;;;;;;;11.50;2.55;;;;;;;;;;4985753;28;20718;-78
2021/12/08 09:06:16;;;;;;;9.32;2.38;;;;;;;;;;4997738;28;20032;-78
2021/12/08 09:08:44;;;;;;;10.13;2.65;;;;;;;;;;4989920;28;20054;-78
2021/12/08 09:11:12;;;;;;;10.40;2.35;;;;;;;;;;4988235;28;20042;-77
2021/12/08 09:14:02;;;;;;;9.98;2.10;;;;;;;;;;4996252;28;20797;-78
2021/12/08 09:16:38;;;;;;;9.73;2.22;;;;;;;;;;4978284;28;20057;-77
2021/12/08 09:19:07;;;;;;;9.63;2.10;;;;;;;;;;4972182;28;20033;-78
2021/12/08 09:21:43;;;;;;;8.68;2.15;;;;;;;;;;4999463;28;21835;-77
2021/12/08 09:24:17;;;;;;;7.95;1.92;;;;;;;;;;4977165;28;20056;-78
2021/12/08 09:26:48;;;;;;;8.23;1.70;;;;;;;;;;4989782;28;20048;-78
2021/12/08 09:29:16;;;;;;;8.82;1.60;;;;;;;;;;4998456;28;20152;-77
2021/12/08 09:31:49;;;;;;;9.73;2.10;;;;;;;;;;4986283;28;20132;-78
2021/12/08 09:34:22;;;;;;;10.18;2.95;;;;;;;;;;4989891;28;20076;-79
2021/12/08 09:36:54;;;;;;;10.82;2.35;;;;;;;;;;4994585;28;20701;-79
2021/12/08 09:39:23;;;;;;;7.85;1.90;;;;;;;;;;4989585;28;20038;-80
2021/12/08 09:42:07;;;;;;;10.00;1.90;;;;;;;;;;4996369;28;20033;-80
2021/12/08 09:44:40;;;;;;;8.50;2.00;;;;;;;;;;4990311;28;20543;-80
2021/12/08 09:47:07;;;;;;;12.82;2.08;;;;;;;;;;4976919;28;20457;-80
2021/12/08 09:49:35;;;;;;;8.52;1.77;;;;;;;;;;4996193;28;20038;-80
2021/12/08 09:52:05;;;;;;;8.27;2.50;;;;;;;;;;4967450;28;20136;-80
2021/12/08 09:54:37;;;;;;;6.60;1.55;;;;;;;;;;4968685;28;20128;-78
2021/12/08 09:57:08;;;;;;;7.63;1.58;;;;;;;;;;4973719;28;20034;-78
2021/12/08 09:59:45;;;;;;;9.07;1.98;;;;;;;;;;4967832;28;20042;-79
2021/12/08 10:02:24;;;;;;;8.73;2.10;;;;;;;;;;4954018;28;20988;-79
2021/12/08 10:04:51;;;;;;;13.43;3.00;;;;;;;;;;4947707;28;20627;-78
2021/12/08 10:07:19;;;;;;;10.80;2.78;;;;;;;;;;4948624;28;20453;-78
2021/12/08 10:09:49;;;;;;;13.93;3.67;;;;;;;;;;4968762;28;20070;-78
2021/12/08 10:12:16;;;;;;;12.23;3.08;;;;;;;;;;4942089;28;20378;-80
2021/12/08 10:14:46;;;;;;;9.45;2.83;;;;;;;;;;4956963;28;20076;-88
2021/12/08 10:17:22;;;;;;;12.07;3.55;;;;;;;;;;4990745;28;20046;-89
2021/12/08 10:20:18;;;;;;;;;;;;;;;;;;;;;
2021/12/08 10:22:47;;;;;;;;;;;;;;;;;;4976752;28;20065;-88
2021/12/08 10:25:21;;;;;;;13.25;1.80;;;;;;;;;;4976355;28;19920;-86
2021/12/08 10:28:07;;;;;;;8.75;2.35;;;;;;;;;;4983631;28;20125;-88
2021/12/08 10:30:40;;;;;;;15.80;6.40;;;;;;;;;;4968282;28;20041;-88
2021/12/08 10:33:12;;;;;;;8.38;2.65;;;;;;;;;;4983817;28;20053;-87
2021/12/08 10:36:00;;;;;;;12.43;3.42;;;;;;;;;;4976153;28;20407;-87
2021/12/08 10:38:36;;;;;;;7.00;1.75;;;;;;;;;;4983222;28;20041;-90
2021/12/08 10:41:05;;;;;;;9.10;1.83;;;;;;;;;;4967814;28;20038;-88
2021/12/08 10:43:31;;;;;;;9.57;1.90;;;;;;;;;;4991751;28;20038;-86
2021/12/08 10:46:10;;;;;;;10.45;3.42;;;;;;;;;;4959920;28;20070;-87
2021/12/08 10:48:43;;;;;;;8.10;1.48;;;;;;;;;;4968967;28;20101;-88
2021/12/08 10:54:27;;;;;;;7.05;1.17;;;;;;;;;;4979487;28;20056;-87
2021/12/08 10:56:57;;;;;;;7.15;1.30;;;;;;;;;;4971787;28;20145;-90
2021/12/08 10:59:29;;;;;;;5.90;1.48;;;;;;;;;;4983529;28;20535;-87
2021/12/08 11:02:03;;;;;;;4.90;0.82;;;;;;;;;;4969834;28;21058;-87
2021/12/08 11:04:33;;;;;;;10.10;1.60;;;;;;;;;;4975998;28;20049;-88
2021/12/08 11:07:04;;;;;;;7.90;1.58;;;;;;;;;;4974069;28;20456;-86
2021/12/08 11:09:39;;;;;;;5.13;1.00;;;;;;;;;;4991645;28;20760;-87
2021/12/08 11:12:06;;;;;;;8.50;1.60;;;;;;;;;;4984633;28;20032;-89
2021/12/08 11:15:06;;;;;;;8.43;1.70;;;;;;;;;;4981643;28;20505;-89
2021/12/08 11:17:35;;;;;;;6.03;1.15;;;;;;;;;;4880963;29;20064;-88
2021/12/08 11:20:24;;;;;;;8.23;2.17;;;;;;;;;;4874593;29;20082;-89
2021/12/08 11:23:08;;;;;;;9.38;2.90;;;;;;;;;;4878684;29;20479;-92
2021/12/08 11:25:40;;;;;;;10.75;3.15;;;;;;;;;;4878457;29;20076;-92
2021/12/08 11:28:29;;;;;;;8.70;1.50;;;;;;;;;;4837387;29;20171;-88
2021/12/08 11:31:03;;;;;;;6.80;1.50;;;;;;;;;;4867449;29;20743;-86
2021/12/08 11:33:30;;;;;;;6.82;1.50;;;;;;;;;;4877353;29;21073;-87
2021/12/08 11:36:16;;;;;;;9.07;1.90;;;;;;;;;;4861538;29;20067;-88
2021/12/08 11:38:44;;;;;;;8.00;1.75;;;;;;;;;;4873230;29;20044;-88
2021/12/08 11:41:24;;;;;;;6.15;1.45;;;;;;;;;;4865979;29;20358;-87
2021/12/08 11:43:53;;;;;;;5.25;1.38;;;;;;;;;;4855220;29;20139;-87
2021/12/08 11:46:21;;;;;;;6.53;1.55;;;;;;;;;;4882711;29;20495;-86
2021/12/08 11:48:50;;;;;;;6.43;1.95;;;;;;;;;;4854224;29;20376;-86
2021/12/08 11:51:18;;;;;;;6.88;2.55;;;;;;;;;;4861531;29;20040;-86
2021/12/08 11:53:45;;;;;;;10.10;3.33;;;;;;;;;;4875037;29;20024;-89
2021/12/08 11:56:31;;;;;;;9.35;3.75;;;;;;;;;;4859151;29;20052;-87
2021/12/08 11:58:57;;;;;;;10.50;4.50;;;;;;;;;;4863476;29;20044;-89
2021/12/08 12:01:25;;;;;;;8.93;3.15;;;;;;;;;;4861994;29;20126;-87
2021/12/08 12:03:52;;;;;;;13.93;5.75;;;;;;;;;;4866465;29;20120;-88
2021/12/08 12:06:27;;;;;;;8.60;3.72;;;;;;;;;;4920777;28;20035;-87
2021/12/08 12:08:59;;;;;;;9.93;4.50;;;;;;;;;;4983237;28;21019;-87
2021/12/08 12:11:27;;;;;;;14.23;6.90;;;;;;;;;;4996212;28;20502;-87
2021/12/08 12:13:57;;;;;;;13.38;5.68;;;;;;;;;;4974126;28;20159;-88
2021/12/08 12:16:25;;;;;;;9.98;4.32;;;;;;;;;;4983317;28;20836;-89
2021/12/08 12:18:58;;;;;;;7.80;2.40;;;;;;;;;;4988250;28;20041;-88
2021/12/08 12:21:43;;;;;;;11.75;4.57;;;;;;;;;;4973042;28;20305;-87
2021/12/08 12:24:14;;;;;;;8.07;3.17;;;;;;;;;;4990433;28;21377;-89
2021/12/08 12:27:00;;;;;;;8.55;3.33;;;;;;;;;;4995664;28;20034;-89
2021/12/08 12:29:41;;;;;;;8.60;3.05;;;;;;;;;;4975717;28;20034;-88
2021/12/08 12:32:13;;;;;;;8.65;1.98;;;;;;;;;;4976433;28;20064;-89
2021/12/08 12:34:44;;;;;;;11.00;3.20;;;;;;;;;;4990723;28;20038;-88
2021/12/08 12:37:17;;;;;;;12.68;5.80;;;;;;;;;;4987892;28;20046;-88
2021/12/08 12:39:50;;;;;;;11.45;4.57;;;;;;;;;;4974602;28;20041;-88
2021/12/08 12:42:20;;;;;;;9.77;2.58;;;;;;;;;;4971301;28;20033;-88
2021/12/08 12:45:08;;;;;;;10.70;3.08;;;;;;;;;;4972009;28;20133;-87
2021/12/08 12:47:36;;;;;;;8.45;1.70;;;;;;;;;;4999240;28;20065;-89
2021/12/08 12:50:13;;;;;;;7.55;1.90;;;;;;;;;;4974811;28;20061;-88
2021/12/08 12:53:01;;;;;;;7.68;2.47;;;;;;;;;;4988240;28;20041;-86
2021/12/08 12:55:27;;;;;;;8.95;2.67;;;;;;;;;;4987388;28;20050;-86
2021/12/08 12:58:00;;;;;;;12.48;1.77;;;;;;;;;;4981404;28;20618;-89
2021/12/08 13:00:28;;;;;;;9.55;2.25;;;;;;;;;;4979768;28;20025;-89
2021/12/08 13:03:08;;;;;;;9.30;1.92;;;;;;;;;;4968125;28;21609;-89
2021/12/08 13:05:53;;;;;;;7.65;1.75;;;;;;;;;;4999374;28;20042;-89
2021/12/08 13:08:36;;;;;;;9.32;1.55;;;;;;;;;;5002977;28;20038;-87
2021/12/08 13:11:40;;;;;;;7.22;1.35;;;;;;;;;;4982036;28;20033;-89
2021/12/08 13:14:19;;;;;;;9.02;2.78;;;;;;;;;;4980577;28;20489;-89
2021/12/08 13:16:45;;;;;;;7.63;1.60;;;;;;;;;;4993902;28;20053;-89
2021/12/08 13:19:12;;;;;;;8.55;2.40;;;;;;;;;;4984031;28;20031;-89
2021/12/08 13:21:43;;;;;;;8.90;2.28;;;;;;;;;;4969195;28;20042;-89
2021/12/08 13:24:44;;;;;;;;;;;;;;;;;;;;;
2021/12/08 13:27:27;;;;;;;8.82;1.63;;;;;;;;;;4987876;28;20030;-87
2021/12/08 13:30:15;;;;;;;8.20;2.10;;;;;;;;;;4978682;28;20173;-88
2021/12/08 13:32:45;;;;;;;9.38;2.13;;;;;;;;;;4975763;28;20071;-91
2021/12/08 13:35:13;;;;;;;9.05;1.88;;;;;;;;;;5003787;28;20065;-89
2021/12/08 13:37:56;;;;;;;10.73;2.70;;;;;;;;;;4979577;28;20511;-89
2021/12/08 13:40:40;;;;;;;12.02;3.72;;;;;;;;;;4983884;28;20034;-88
2021/12/08 13:43:09;;;;;;;10.05;2.25;;;;;;;;;;4997245;28;20048;-88
2021/12/08 13:45:43;;;;;;;10.38;2.88;;;;;;;;;;4987650;28;20042;-89
2021/12/08 13:48:09;;;;;;;11.57;2.50;;;;;;;;;;4980558;28;20030;-90
2021/12/08 13:50:36;;;;;;;10.27;3.05;;;;;;;;;;4984264;28;20048;-87
2021/12/08 13:53:10;;;;;;;12.52;2.92;;;;;;;;;;4980059;28;20041;-88
2021/12/08 13:55:40;;;;;;;10.18;2.80;;;;;;;;;;4983729;28;20500;-88
2021/12/08 13:58:07;;;;;;;12.57;4.68;;;;;;;;;;4984896;28;20586;-90
2021/12/08 14:00:49;;;;;;;12.35;3.10;;;;;;;;;;4989324;28;20128;-90
2021/12/08 14:03:21;;;;;;;10.82;3.17;;;;;;;;;;5001002;28;20029;-88
2021/12/08 14:05:57;;;;;;;13.25;4.30;;;;;;;;;;4992195;28;20113;-89
2021/12/08 14:08:33;;;;;;;10.27;3.60;;;;;;;;;;4993832;28;20569;-89
2021/12/08 14:11:04;;;;;;;13.25;3.83;;;;;;;;;;4999939;28;20038;-87
2021/12/08 14:13:32;;;;;;;11.75;4.05;;;;;;;;;;5000708;28;20038;-87
2021/12/08 14:16:03;;;;;;;10.60;3.63;;;;;;;;;;4999235;28;20025;-90
2021/12/08 14:18:44;;;;;;;13.27;3.83;;;;;;;;;;5001035;28;20048;-89
2021/12/08 14:21:12;;;;;;;10.60;3.13;;;;;;;;;;4981361;28;20040;-89
2021/12/08 14:23:48;;;;;;;12.60;4.80;;;;;;;;;;4998040;28;20432;-88
2021/12/08 14:26:18;;;;;;;12.73;4.65;;;;;;;;;;4997086;28;20038;-88
2021/12/08 14:28:53;;;;;;;10.63;3.70;;;;;;;;;;4996522;28;20104;-87
2021/12/08 14:31:24;;;;;;;8.65;2.22;;;;;;;;;;5007954;28;20037;-88
2021/12/08 14:33:59;;;;;;;9.75;2.45;;;;;;;;;;4997352;28;21711;-88
2021/12/08 14:36:31;;;;;;;8.80;2.67;;;;;;;;;;5004285;28;20064;-90
2021/12/08 14:38:59;;;;;;;9.27;2.20;;;;;;;;;;5002413;28;20125;-88
2021/12/08 14:41:29;;;;;;;5.32;1.17;;;;;;;;;;4976302;28;20043;-88
2021/12/08 14:44:17;;;;;;;6.70;1.73;;;;;;;;;;4997752;28;20521;-89
2021/12/08 14:46:43;;;;;;;;;;;;;;;;;;4995680;28;20072;-89
2021/12/08 14:49:12;;;;;;;10.70;2.58;;;;;;;;;;4977719;28;19924;-91
2021/12/08 14:51:39;;;;;;;9.88;2.08;;;;;;;;;;4982523;28;21257;-89
2021/12/08 14:54:11;;;;;;;11.88;4.50;;;;;;;;;;4983799;28;20034;-88
2021/12/08 14:56:38;;;;;;;9.45;3.20;;;;;;;;;;4981441;28;20050;-89
2021/12/08 14:59:07;;;;;;;7.82;1.80;;;;;;;;;;4998295;28;20616;-89
2021/12/08 15:01:38;;;;;;;8.77;2.28;;;;;;;;;;4995024;28;20697;-90
2021/12/08 15:04:05;;;;;;;9.95;2.45;;;;;;;;;;4979185;28;20113;-87
2021/12/08 15:06:31;;;;;;;10.43;2.10;;;;;;;;;;5002349;28;20196;-87
2021/12/08 15:08:58;;;;;;;7.60;2.05;;;;;;;;;;4970123;28;20042;-89
2021/12/08 15:11:30;;;;;;;9.15;1.95;;;;;;;;;;4992487;28;20503;-88
2021/12/08 15:13:58;;;;;;;8.15;1.90;;;;;;;;;;4992949;28;20038;-88
2021/12/08 15:16:24;;;;;;;7.25;2.00;;;;;;;;;;4987584;28;20164;-90
2021/12/08 15:18:51;;;;;;;;;;;;;;;;;;4994056;28;20038;-88
2021/12/08 15:21:35;;;;;;;14.68;7.43;;;;;;;;;;4977168;28;19914;-89
2021/12/08 15:24:06;;;;;;;9.55;2.25;;;;;;;;;;4978889;28;20472;-90
2021/12/08 15:26:34;;;;;;;10.25;3.00;;;;;;;;;;4996407;28;20034;-90
2021/12/08 15:29:03;;;;;;;11.15;4.20;;;;;;;;;;4989646;28;20041;-90
2021/12/08 15:31:31;;;;;;;12.55;4.50;;;;;;;;;;4981110;28;20030;-87
2021/12/08 15:33:58;;;;;;;15.63;8.07;;;;;;;;;;4975400;28;20034;-88
2021/12/08 15:36:29;;;;;;;10.35;4.05;;;;;;;;;;4988550;28;20034;-88
2021/12/08 15:38:59;;;;;;;8.32;2.95;;;;;;;;;;4978801;28;20029;-89
2021/12/08 15:41:30;;;;;;;10.50;3.80;;;;;;;;;;4960923;28;20524;-89
2021/12/08 15:44:07;;;;;;;13.88;3.88;;;;;;;;;;4978664;28;20073;-89
2021/12/08 15:46:38;;;;;;;13.45;5.13;;;;;;;;;;4977954;28;20416;-88
2021/12/08 15:49:11;;;;;;;7.65;2.10;;;;;;;;;;4979903;28;20045;-89
2021/12/08 15:51:42;;;;;;;15.48;7.13;;;;;;;;;;4973749;28;20099;-88
2021/12/08 15:54:08;;;;;;;14.60;5.75;;;;;;;;;;4974377;28;20420;-87
2021/12/08 15:56:37;;;;;;;;;;;;;;;;;;4978937;28;20033;-90
2021/12/08 15:59:16;;;;;;;36.63;25.73;;;;;;;;;;4979119;28;20406;-88
2021/12/08 16:01:44;;;;;;;11.88;5.80;;;;;;;;;;4976258;28;20160;-87